createdAt,value
2023-05-08T00:01:57.651Z,8.78
2023-05-08T00:04:24.245Z,8.77
2023-05-08T00:06:51.684Z,8.76
2023-05-08T00:09:19.471Z,8.75
2023-05-08T00:11:48.556Z,8.73
2023-05-08T00:14:17.112Z,8.70
2023-05-08T00:16:43.808Z,8.61
2023-05-08T00:19:10.315Z,8.61
2023-05-08T00:21:36.863Z,8.57
2023-05-08T00:24:03.568Z,8.59
2023-05-08T00:26:30.038Z,8.57
2023-05-08T00:28:57.785Z,8.61
2023-05-08T00:31:24.453Z,8.62
2023-05-08T00:33:50.991Z,8.58
2023-05-08T00:36:17.492Z,8.58
2023-05-08T00:38:44.014Z,8.53
2023-05-08T00:41:10.488Z,8.48
2023-05-08T00:43:37.687Z,8.48
2023-05-08T00:46:06.798Z,8.51
2023-05-08T00:48:35.229Z,8.51
2023-05-08T00:51:04.742Z,8.55
2023-05-08T00:53:33.812Z,8.42
2023-05-08T00:56:00.642Z,8.47
2023-05-08T00:58:27.922Z,8.44
2023-05-08T01:00:56.195Z,8.39
2023-05-08T01:03:23.819Z,8.54
2023-05-08T01:05:50.585Z,8.56
2023-05-08T01:08:17.085Z,8.57
2023-05-08T01:11:08.180Z,8.64
2023-05-08T01:13:42.503Z,8.68
2023-05-08T01:16:17.824Z,8.63
2023-05-08T01:19:26.774Z,8.58
2023-05-08T01:21:58.945Z,8.50
2023-05-08T01:24:59.312Z,8.43
2023-05-08T01:27:44.084Z,8.27
2023-05-08T01:30:27.399Z,8.19
2023-05-08T01:32:59.351Z,8.21
2023-05-08T01:35:40.140Z,8.13
2023-05-08T01:38:10.518Z,8.13
2023-05-08T01:40:40.039Z,8.02
2023-05-08T01:43:14.524Z,7.91
2023-05-08T01:45:46.788Z,7.89
2023-05-08T01:48:44.458Z,7.87
2023-05-08T01:51:19.802Z,7.82
2023-05-08T01:53:52.260Z,7.91
2023-05-08T01:56:24.480Z,8.01
2023-05-08T01:58:54.252Z,8.03
2023-05-08T02:01:24.433Z,7.89
2023-05-08T02:03:52.760Z,7.78
2023-05-08T02:06:21.977Z,7.80
2023-05-08T02:08:49.510Z,7.67
2023-05-08T02:11:18.353Z,7.53
2023-05-08T02:13:47.913Z,7.48
2023-05-08T02:16:15.244Z,7.33
2023-05-08T02:18:48.339Z,7.29
2023-05-08T02:21:15.677Z,7.31
2023-05-08T02:23:43.774Z,7.32
2023-05-08T02:26:13.196Z,7.39
2023-05-08T02:28:40.506Z,7.29
2023-05-08T02:31:09.051Z,7.23
2023-05-08T02:33:38.686Z,7.21
2023-05-08T02:36:07.349Z,7.12
2023-05-08T02:38:37.725Z,7.07
2023-05-08T02:41:06.526Z,7.01
2023-05-08T02:43:33.299Z,7.01
2023-05-08T02:46:09.890Z,7.07
2023-05-08T02:48:41.131Z,7.00
2023-05-08T02:51:27.983Z,7.04
2023-05-08T02:54:22.948Z,7.19
2023-05-08T02:57:21.821Z,7.07
2023-05-08T03:00:12.449Z,7.10
2023-05-08T03:02:53.066Z,6.99
2023-05-08T03:05:24.361Z,6.85
2023-05-08T03:07:54.408Z,6.83
2023-05-08T03:10:25.095Z,6.85
2023-05-08T03:12:54.913Z,6.99
2023-05-08T03:15:28.388Z,7.01
2023-05-08T03:17:58.834Z,7.01
2023-05-08T03:20:31.047Z,7.10
2023-05-08T03:22:57.900Z,7.14
2023-05-08T03:25:25.659Z,7.18
2023-05-08T03:27:53.754Z,7.13
2023-05-08T03:30:20.807Z,6.92
2023-05-08T03:32:49.131Z,6.98
2023-05-08T03:35:16.618Z,6.96
2023-05-08T03:37:43.330Z,7.12
2023-05-08T03:40:10.837Z,7.21
2023-05-08T03:42:38.470Z,6.96
2023-05-08T03:45:07.024Z,6.92
2023-05-08T03:47:36.216Z,6.83
2023-05-08T03:50:03.179Z,6.72
2023-05-08T03:52:30.277Z,6.64
2023-05-08T03:54:56.780Z,6.75
2023-05-08T03:57:31.324Z,6.76
2023-05-08T04:00:01.660Z,6.86
2023-05-08T04:02:42.798Z,6.95
2023-05-08T04:05:21.469Z,6.89
2023-05-08T04:08:29.867Z,7.15
2023-05-08T04:11:06.953Z,7.18
2023-05-08T04:13:42.380Z,6.95
2023-05-08T04:16:24.032Z,6.84
2023-05-08T04:18:54.393Z,6.92
2023-05-08T04:21:24.201Z,7.09
2023-05-08T04:23:52.232Z,7.11
2023-05-08T04:26:19.357Z,7.16
2023-05-08T04:28:46.898Z,7.19
2023-05-08T04:31:16.288Z,7.18
2023-05-08T04:33:46.912Z,7.12
2023-05-08T04:36:14.312Z,7.30
2023-05-08T04:38:41.179Z,7.45
2023-05-08T04:41:08.798Z,7.53
2023-05-08T04:43:36.551Z,7.52
2023-05-08T04:46:06.135Z,7.58
2023-05-08T04:48:33.839Z,7.68
2023-05-08T04:51:00.767Z,7.80
2023-05-08T04:53:27.301Z,7.81
2023-05-08T04:55:53.876Z,7.84
2023-05-08T04:58:20.448Z,7.82
2023-05-08T05:00:46.930Z,7.84
2023-05-08T05:03:13.727Z,7.84
2023-05-08T05:05:40.479Z,7.88
2023-05-08T05:08:07.010Z,7.94
2023-05-08T05:10:33.527Z,7.99
2023-05-08T05:13:00.047Z,7.94
2023-05-08T05:15:26.535Z,8.03
2023-05-08T05:17:53.125Z,8.13
2023-05-08T05:20:19.621Z,8.17
2023-05-08T05:22:46.166Z,8.23
2023-05-08T05:25:13.041Z,8.26
2023-05-08T05:27:39.693Z,8.31
2023-05-08T05:30:07.010Z,8.26
2023-05-08T05:32:33.599Z,8.41
2023-05-08T05:35:00.199Z,8.56
2023-05-08T05:37:26.934Z,8.66
2023-05-08T05:39:53.406Z,8.66
2023-05-08T05:42:19.928Z,8.68
2023-05-08T05:44:46.414Z,8.71
2023-05-08T05:47:13.048Z,8.63
2023-05-08T05:49:43.024Z,8.75
2023-05-08T05:52:09.567Z,8.77
2023-05-08T05:54:36.069Z,9.04
2023-05-08T05:57:06.309Z,9.10
2023-05-08T05:59:32.798Z,9.27
2023-05-08T06:01:59.463Z,9.30
2023-05-08T06:04:26.476Z,9.46
2023-05-08T06:06:53.124Z,9.52
2023-05-08T06:09:19.607Z,9.41
2023-05-08T06:11:46.088Z,9.46
2023-05-08T06:14:12.582Z,9.47
2023-05-08T06:16:39.122Z,9.60
2023-05-08T06:19:08.214Z,9.83
2023-05-08T06:21:34.679Z,9.81
2023-05-08T06:24:04.237Z,9.74
2023-05-08T06:26:30.737Z,9.83
2023-05-08T06:28:57.220Z,9.87
2023-05-08T06:31:23.767Z,10.03
2023-05-08T06:33:50.384Z,9.94
2023-05-08T06:36:16.820Z,10.03
2023-05-08T06:38:43.354Z,10.04
2023-05-08T06:41:09.793Z,10.01
2023-05-08T06:43:36.251Z,9.95
2023-05-08T06:46:02.810Z,9.95
2023-05-08T06:48:29.603Z,10.02
2023-05-08T06:50:56.446Z,10.02
2023-05-08T06:53:23.516Z,9.89
2023-05-08T06:55:49.977Z,9.96
2023-05-08T06:58:16.428Z,10.00
2023-05-08T07:00:43.086Z,10.09
2023-05-08T07:03:09.732Z,10.23
2023-05-08T07:05:36.368Z,10.36
2023-05-08T07:08:02.847Z,10.36
2023-05-08T07:10:29.360Z,10.40
2023-05-08T07:12:55.918Z,10.46
2023-05-08T07:15:26.506Z,10.56
2023-05-08T07:17:56.303Z,10.45
2023-05-08T07:20:24.306Z,10.50
2023-05-08T07:22:50.852Z,10.56
2023-05-08T07:25:17.396Z,10.69
2023-05-08T07:27:43.969Z,10.85
2023-05-08T07:30:10.804Z,10.92
2023-05-08T07:32:39.153Z,10.94
2023-05-08T07:35:10.308Z,11.19
2023-05-08T07:37:40.064Z,11.25
2023-05-08T07:40:07.390Z,11.40
2023-05-08T07:42:44.090Z,11.57
2023-05-08T07:45:12.666Z,11.68
2023-05-08T07:47:51.576Z,11.81
2023-05-08T07:50:18.207Z,12.11
2023-05-08T07:52:45.647Z,12.20
2023-05-08T07:55:13.800Z,12.38
2023-05-08T07:57:41.686Z,12.40
2023-05-08T08:00:10.552Z,12.58
2023-05-08T08:02:37.791Z,12.77
2023-05-08T08:05:08.346Z,12.71
2023-05-08T08:07:35.290Z,12.60
2023-05-08T08:10:03.820Z,12.71
2023-05-08T08:12:30.869Z,12.76
2023-05-08T08:14:57.984Z,12.85
2023-05-08T08:17:26.794Z,13.00
2023-05-08T08:19:54.824Z,13.26
2023-05-08T08:22:21.366Z,13.52
2023-05-08T08:24:47.930Z,13.82
2023-05-08T08:27:14.689Z,13.89
2023-05-08T08:29:41.248Z,14.10
2023-05-08T08:32:07.972Z,14.27
2023-05-08T08:34:34.581Z,14.21
2023-05-08T08:37:01.200Z,14.41
2023-05-08T08:39:27.899Z,14.49
2023-05-08T08:41:54.495Z,14.59
2023-05-08T08:44:20.972Z,14.50
2023-05-08T08:46:51.965Z,14.57
2023-05-08T08:49:24.643Z,14.49
2023-05-08T08:51:55.715Z,14.30
2023-05-08T08:54:24.596Z,14.38
2023-05-08T08:56:52.867Z,14.51
2023-05-08T08:59:19.715Z,14.12
2023-05-08T09:01:51.650Z,14.01
2023-05-08T09:04:18.187Z,14.03
2023-05-08T09:06:45.974Z,13.99
2023-05-08T09:09:13.550Z,14.01
2023-05-08T09:11:41.489Z,14.10
2023-05-08T09:14:08.643Z,14.27
2023-05-08T09:16:35.539Z,14.20
2023-05-08T09:19:04.503Z,14.32
2023-05-08T09:21:32.448Z,14.45
2023-05-08T09:24:01.074Z,14.60
2023-05-08T09:26:40.444Z,14.48
2023-05-08T09:29:12.609Z,14.72
2023-05-08T09:31:44.339Z,15.03
2023-05-08T09:34:21.857Z,15.08
2023-05-08T09:36:48.424Z,14.96
2023-05-08T09:39:22.292Z,15.13
2023-05-08T09:41:59.278Z,15.18
2023-05-08T09:44:25.809Z,15.38
2023-05-08T09:46:52.371Z,15.32
2023-05-08T09:49:19.335Z,15.42
2023-05-08T09:51:55.467Z,15.30
2023-05-08T09:54:22.027Z,15.40
2023-05-08T09:56:48.487Z,15.47
2023-05-08T09:59:30.032Z,15.59
2023-05-08T10:01:57.891Z,15.35
2023-05-08T10:04:38.061Z,15.52
2023-05-08T10:07:04.729Z,15.61
2023-05-08T10:09:42.424Z,15.74
2023-05-08T10:12:13.958Z,15.82
2023-05-08T10:14:40.567Z,15.82
2023-05-08T10:17:10.167Z,15.82
2023-05-08T10:19:41.121Z,16.09
2023-05-08T10:22:11.363Z,15.95
2023-05-08T10:24:41.067Z,16.20
2023-05-08T10:27:16.474Z,16.34
2023-05-08T10:30:00.975Z,16.43
2023-05-08T10:32:31.411Z,16.36
2023-05-08T10:35:03.000Z,16.39
2023-05-08T10:37:30.973Z,16.52
2023-05-08T10:39:58.507Z,16.48
2023-05-08T10:42:27.669Z,16.58
2023-05-08T10:44:54.698Z,16.69
2023-05-08T10:47:39.001Z,16.77
2023-05-08T10:50:22.667Z,16.67
2023-05-08T10:53:28.150Z,16.78
2023-05-08T10:55:55.467Z,16.80
2023-05-08T10:58:33.456Z,16.75
2023-05-08T11:00:59.939Z,17.08
2023-05-08T11:03:32.284Z,17.17
2023-05-08T11:06:01.488Z,16.99
2023-05-08T11:08:31.947Z,16.96
2023-05-08T11:11:06.328Z,17.09
2023-05-08T11:13:38.094Z,17.31
2023-05-08T11:16:08.510Z,17.27
2023-05-08T11:18:48.580Z,17.27
2023-05-08T11:21:22.014Z,17.33
2023-05-08T11:24:00.307Z,17.65
2023-05-08T11:26:42.479Z,17.45
2023-05-08T11:29:18.228Z,17.54
2023-05-08T11:31:52.119Z,17.51
2023-05-08T11:34:54.724Z,17.74
2023-05-08T11:37:24.210Z,17.71
2023-05-08T11:39:53.613Z,17.92
2023-05-08T11:42:29.141Z,17.92
2023-05-08T11:45:09.094Z,17.60
2023-05-08T11:47:41.557Z,17.66
2023-05-08T11:50:09.503Z,17.79
2023-05-08T11:52:37.403Z,17.78
2023-05-08T11:55:11.770Z,17.85
2023-05-08T11:57:38.673Z,17.83
2023-05-08T12:00:10.846Z,18.08
2023-05-08T12:02:42.972Z,17.91
2023-05-08T12:05:11.299Z,17.94
2023-05-08T12:07:47.786Z,18.06
2023-05-08T12:10:16.134Z,18.07
2023-05-08T12:12:44.362Z,18.23
2023-05-08T12:15:15.347Z,18.24
2023-05-08T12:17:43.236Z,18.18
2023-05-08T12:20:14.500Z,18.26
2023-05-08T12:22:42.108Z,18.19
2023-05-08T12:25:09.555Z,18.22
2023-05-08T12:27:37.869Z,18.24
2023-05-08T12:30:12.935Z,18.28
2023-05-08T12:32:43.772Z,18.27
2023-05-08T12:35:12.538Z,18.23
2023-05-08T12:37:39.688Z,18.23
2023-05-08T12:40:07.995Z,18.47
2023-05-08T12:42:43.720Z,18.51
2023-05-08T12:45:24.389Z,18.58
2023-05-08T12:47:53.455Z,18.47
2023-05-08T12:50:21.805Z,18.42
2023-05-08T12:52:51.365Z,18.32
2023-05-08T12:55:21.892Z,18.34
2023-05-08T12:57:49.824Z,18.53
2023-05-08T13:00:17.478Z,18.47
2023-05-08T13:02:55.055Z,18.33
2023-05-08T13:05:23.411Z,18.32
2023-05-08T13:07:51.319Z,18.21
2023-05-08T13:10:23.989Z,18.20
2023-05-08T13:12:52.217Z,18.20
2023-05-08T13:15:18.821Z,18.26
2023-05-08T13:17:45.335Z,18.14
2023-05-08T13:20:14.801Z,18.33
2023-05-08T13:22:41.458Z,18.40
2023-05-08T13:25:08.614Z,18.45
2023-05-08T13:27:35.148Z,18.40
2023-05-08T13:30:01.607Z,18.46
2023-05-08T13:32:28.154Z,18.38
2023-05-08T13:34:58.715Z,18.41
2023-05-08T13:37:26.744Z,18.53
2023-05-08T13:39:53.245Z,18.45
2023-05-08T13:42:19.721Z,18.46
2023-05-08T13:44:46.134Z,18.50
2023-05-08T13:47:12.735Z,18.52
2023-05-08T13:49:39.199Z,18.36
2023-05-08T13:52:08.348Z,18.44
2023-05-08T13:54:34.837Z,18.51
2023-05-08T13:57:02.719Z,18.42
2023-05-08T13:59:31.172Z,18.48
2023-05-08T14:01:57.705Z,18.40
2023-05-08T14:04:24.218Z,18.38
2023-05-08T14:06:50.740Z,18.38
2023-05-08T14:09:17.279Z,18.29
2023-05-08T14:11:43.846Z,18.22
2023-05-08T14:14:10.376Z,18.22
2023-05-08T14:16:37.088Z,18.19
2023-05-08T14:19:05.236Z,18.19
2023-05-08T14:21:31.762Z,18.21
2023-05-08T14:23:58.277Z,18.22
2023-05-08T14:26:24.722Z,18.24
2023-05-08T14:28:51.191Z,18.02
2023-05-08T14:31:17.786Z,18.04
2023-05-08T14:33:44.345Z,18.14
2023-05-08T14:36:10.904Z,18.16
2023-05-08T14:38:37.355Z,18.07
2023-05-08T14:41:04.886Z,18.03
2023-05-08T14:43:31.648Z,18.04
2023-05-08T14:45:58.447Z,17.98
2023-05-08T14:48:28.379Z,17.99
2023-05-08T14:50:56.451Z,17.96
2023-05-08T14:53:25.876Z,17.91
2023-05-08T14:55:52.724Z,17.97
2023-05-08T14:58:19.298Z,18.01
2023-05-08T15:00:46.090Z,17.97
2023-05-08T15:03:12.662Z,18.02
2023-05-08T15:05:39.219Z,17.90
2023-05-08T15:08:05.733Z,17.93
2023-05-08T15:10:32.235Z,17.92
2023-05-08T15:12:58.769Z,17.91
2023-05-08T15:15:25.369Z,17.90
2023-05-08T15:17:52.071Z,17.83
2023-05-08T15:20:18.693Z,17.78
2023-05-08T15:22:45.283Z,17.87
2023-05-08T15:25:15.485Z,17.86
2023-05-08T15:27:42.536Z,17.90
2023-05-08T15:30:09.525Z,17.92
2023-05-08T15:32:36.136Z,17.80
2023-05-08T15:35:03.230Z,17.70
2023-05-08T15:37:29.687Z,17.70
2023-05-08T15:39:58.281Z,17.68
2023-05-08T15:42:24.910Z,17.68
2023-05-08T15:44:56.604Z,17.70
2023-05-08T15:47:23.999Z,17.71
2023-05-08T15:49:51.225Z,17.65
2023-05-08T15:52:19.549Z,17.67
2023-05-08T15:54:46.701Z,17.65
2023-05-08T15:57:13.622Z,17.65
2023-05-08T15:59:40.310Z,17.64
2023-05-08T16:02:07.880Z,17.64
2023-05-08T16:04:35.042Z,17.60
2023-05-08T16:07:01.875Z,17.54
2023-05-08T16:09:28.350Z,17.54
2023-05-08T16:11:54.801Z,17.52
2023-05-08T16:14:21.359Z,17.51
2023-05-08T16:16:47.801Z,17.51
2023-05-08T16:19:15.782Z,17.52
2023-05-08T16:21:42.297Z,17.46
2023-05-08T16:24:08.814Z,17.44
2023-05-08T16:26:35.404Z,17.42
2023-05-08T16:29:01.935Z,17.43
2023-05-08T16:31:28.410Z,17.39
2023-05-08T16:33:54.907Z,17.39
2023-05-08T16:36:21.772Z,17.37
2023-05-08T16:38:48.293Z,17.34
2023-05-08T16:41:14.778Z,17.32
2023-05-08T16:43:41.221Z,17.32
2023-05-08T16:46:08.285Z,17.30
2023-05-08T16:48:34.913Z,17.26
2023-05-08T16:51:01.423Z,17.21
2023-05-08T16:53:27.961Z,17.19
2023-05-08T16:55:54.948Z,17.12
2023-05-08T16:58:25.895Z,17.12
2023-05-08T17:00:53.364Z,17.09
2023-05-08T17:03:19.976Z,17.03
2023-05-08T17:05:46.565Z,17.00
2023-05-08T17:08:13.238Z,16.99
2023-05-08T17:10:39.724Z,16.96
2023-05-08T17:13:06.257Z,16.90
2023-05-08T17:15:32.915Z,16.86
2023-05-08T17:17:59.408Z,16.78
2023-05-08T17:20:27.886Z,16.74
2023-05-08T17:22:57.910Z,16.74
2023-05-08T17:25:24.440Z,16.68
2023-05-08T17:27:51.377Z,16.63
2023-05-08T17:30:17.896Z,16.54
2023-05-08T17:32:46.187Z,16.47
2023-05-08T17:35:12.692Z,16.45
2023-05-08T17:37:39.193Z,16.43
2023-05-08T17:40:06.395Z,16.32
2023-05-08T17:42:32.937Z,16.29
2023-05-08T17:44:59.399Z,16.24
2023-05-08T17:47:27.200Z,16.16
2023-05-08T17:49:53.654Z,16.13
2023-05-08T17:52:20.288Z,16.04
2023-05-08T17:54:46.797Z,15.97
2023-05-08T17:57:13.269Z,15.90
2023-05-08T17:59:39.755Z,15.78
2023-05-08T18:02:06.378Z,15.73
2023-05-08T18:04:32.964Z,15.63
2023-05-08T18:07:01.499Z,15.50
2023-05-08T18:09:28.466Z,15.43
2023-05-08T18:12:05.159Z,15.41
2023-05-08T18:14:32.324Z,15.33
2023-05-08T18:16:59.838Z,15.28
2023-05-08T18:19:26.597Z,15.35
2023-05-08T18:21:53.122Z,15.40
2023-05-08T18:24:19.612Z,15.34
2023-05-08T18:26:47.523Z,15.24
2023-05-08T18:29:14.026Z,15.07
2023-05-08T18:31:40.507Z,14.96
2023-05-08T18:34:07.076Z,14.85
2023-05-08T18:36:33.532Z,14.78
2023-05-08T18:39:00.105Z,14.79
2023-05-08T18:41:26.827Z,14.74
2023-05-08T18:43:53.365Z,14.66
2023-05-08T18:46:19.923Z,14.57
2023-05-08T18:48:49.921Z,14.47
2023-05-08T18:51:16.394Z,14.33
2023-05-08T18:53:42.949Z,14.27
2023-05-08T18:56:11.412Z,14.22
2023-05-08T18:58:38.023Z,14.18
2023-05-08T19:01:06.143Z,14.15
2023-05-08T19:03:32.864Z,14.11
2023-05-08T19:05:59.388Z,14.05
2023-05-08T19:08:25.872Z,13.95
2023-05-08T19:10:53.278Z,13.95
2023-05-08T19:13:19.802Z,13.97
2023-05-08T19:15:46.461Z,13.94
2023-05-08T19:18:14.059Z,13.84
2023-05-08T19:20:40.632Z,13.72
2023-05-08T19:23:07.150Z,13.63
2023-05-08T19:25:33.713Z,13.54
2023-05-08T19:28:00.231Z,13.47
2023-05-08T19:30:26.757Z,13.45
2023-05-08T19:32:53.250Z,13.54
2023-05-08T19:35:19.741Z,13.55
2023-05-08T19:37:46.541Z,13.57
2023-05-08T19:40:13.768Z,13.51
2023-05-08T19:42:40.719Z,13.38
2023-05-08T19:45:07.686Z,13.30
2023-05-08T19:47:34.158Z,13.23
2023-05-08T19:50:00.669Z,13.10
2023-05-08T19:52:27.140Z,13.12
2023-05-08T19:54:53.848Z,13.13
2023-05-08T19:57:20.548Z,13.20
2023-05-08T19:59:47.103Z,13.12
2023-05-08T20:02:13.619Z,13.15
2023-05-08T20:04:57.327Z,13.09
2023-05-08T20:07:26.767Z,13.06
2023-05-08T20:09:53.228Z,13.03
2023-05-08T20:12:19.696Z,12.98
2023-05-08T20:14:49.060Z,12.90
2023-05-08T20:17:15.560Z,12.85
2023-05-08T20:19:42.042Z,12.79
2023-05-08T20:22:08.606Z,12.83
2023-05-08T20:24:35.154Z,12.75
2023-05-08T20:27:01.715Z,12.61
2023-05-08T20:29:33.388Z,12.53
2023-05-08T20:31:59.984Z,12.48
2023-05-08T20:34:26.513Z,12.33
2023-05-08T20:36:53.019Z,12.22
2023-05-08T20:39:19.457Z,12.17
2023-05-08T20:41:46.004Z,12.13
2023-05-08T20:44:16.962Z,12.07
2023-05-08T20:46:43.454Z,12.06
2023-05-08T20:49:09.904Z,12.05
2023-05-08T20:51:36.577Z,12.11
2023-05-08T20:54:03.303Z,12.02
2023-05-08T20:56:32.744Z,12.13
2023-05-08T20:59:01.969Z,12.04
2023-05-08T21:01:31.366Z,12.08
2023-05-08T21:03:57.832Z,12.05
2023-05-08T21:06:24.434Z,11.80
2023-05-08T21:08:50.902Z,11.75
2023-05-08T21:11:17.836Z,11.78
2023-05-08T21:13:44.811Z,11.66
2023-05-08T21:16:14.773Z,11.65
2023-05-08T21:18:41.351Z,11.63
2023-05-08T21:21:15.679Z,11.67
2023-05-08T21:23:42.175Z,11.59
2023-05-08T21:26:08.678Z,11.64
2023-05-08T21:28:35.219Z,11.62
2023-05-08T21:31:05.747Z,11.67
2023-05-08T21:33:33.800Z,11.82
2023-05-08T21:36:00.686Z,11.72
2023-05-08T21:38:30.683Z,11.80
2023-05-08T21:40:57.341Z,11.79
2023-05-08T21:43:23.852Z,11.57
2023-05-08T21:45:50.409Z,11.51
2023-05-08T21:48:16.973Z,11.56
2023-05-08T21:50:43.425Z,11.70
2023-05-08T21:53:09.996Z,11.75
2023-05-08T21:55:36.510Z,11.79
2023-05-08T21:58:03.029Z,11.84
2023-05-08T22:00:29.548Z,11.76
2023-05-08T22:02:56.233Z,11.56
2023-05-08T22:05:23.523Z,11.58
2023-05-08T22:07:50.245Z,11.66
2023-05-08T22:10:24.567Z,11.70
2023-05-08T22:12:53.631Z,11.53
2023-05-08T22:15:29.538Z,11.49
2023-05-08T22:18:02.550Z,11.48
2023-05-08T22:20:33.359Z,11.34
2023-05-08T22:23:00.371Z,11.48
2023-05-08T22:25:27.142Z,11.45
2023-05-08T22:27:53.644Z,11.43
2023-05-08T22:30:20.131Z,11.42
2023-05-08T22:32:57.727Z,11.26
2023-05-08T22:35:26.847Z,11.25
2023-05-08T22:38:01.327Z,11.19
2023-05-08T22:40:28.636Z,11.22
2023-05-08T22:42:56.182Z,11.19
2023-05-08T22:45:23.231Z,11.19
2023-05-08T22:47:49.837Z,11.26
2023-05-08T22:50:17.057Z,11.23
2023-05-08T22:52:43.757Z,11.02
2023-05-08T22:55:10.310Z,11.11
2023-05-08T22:57:41.214Z,11.11
2023-05-08T23:00:08.518Z,11.19
2023-05-08T23:02:35.585Z,11.04
2023-05-08T23:05:02.366Z,11.01
2023-05-08T23:07:29.116Z,10.93
2023-05-08T23:09:55.673Z,10.76
2023-05-08T23:12:22.144Z,10.77
2023-05-08T23:14:48.686Z,10.66
2023-05-08T23:17:15.432Z,10.67
2023-05-08T23:19:42.487Z,10.59
2023-05-08T23:22:09.478Z,10.62
2023-05-08T23:24:36.753Z,10.68
2023-05-08T23:27:03.364Z,10.87
2023-05-08T23:29:29.933Z,10.75
2023-05-08T23:31:56.497Z,10.69
2023-05-08T23:34:26.100Z,10.79
2023-05-08T23:36:52.550Z,10.82
2023-05-08T23:39:19.236Z,10.85
2023-05-08T23:41:45.747Z,10.68
2023-05-08T23:44:12.243Z,10.69
2023-05-08T23:46:38.763Z,10.68
2023-05-08T23:49:05.647Z,10.60
2023-05-08T23:51:35.169Z,10.60
2023-05-08T23:54:02.633Z,10.57
2023-05-08T23:56:30.792Z,10.57
2023-05-08T23:58:57.293Z,10.55
